Nearby METAR Reports

 

KSNK - Snyder/Winston, Texas, USA
Distance from station: SSE 25mi, 41km
Updated: Wed, 30-Nov-2022 1:15pm CST
Clear
Clear
 Wind from ENE
Wind: ENE 10 mph , 17 km/h
Temperature: 39°F , 4°C
Wind Chill: 32°F , 0°C
Dew Point: 18°F , -8°C
Humidity: 42%
Barometer: 30.41 inHg , 1029.8 hPa
Clouds: Clear
Visibility: 10 miles , 16 km
2022/11/30 19:15 KSNK 301915Z AUTO 07009KT 10SM CLR 04/M08 A3041 RMK AO2 T00351076
KSWW - Sweetwater, Texas, USA
Distance from station: SE 56mi, 90km
Updated: Wed, 30-Nov-2022 1:15pm CST
Clear
Clear
 Wind from ENE
Wind: ENE 7 mph , 11 km/h
Temperature: 45°F , 7°C
Wind Chill: 41°F , 5°C
Dew Point: 21°F , -6°C
Humidity: 39%
Barometer: 30.42 inHg , 1030.1 hPa
Clouds: Clear
Visibility: 10 miles , 16 km
2022/11/30 19:15 KSWW 301915Z AUTO 07006KT 10SM CLR 07/M06 A3042 RMK AO2 T00651056
 
KLBB - Lubbock, Texas, USA
Distance from station: NW 59mi, 94km
Updated: Wed, 30-Nov-2022 12:53pm CST
Mostly cloudy
Mostly cloudy
 Wind from varies
Wind: varies 5 mph , 7 km/h
Temperature: 36°F , 2°C
Wind Chill: 32°F , 0°C
Dew Point: 18°F , -8°C
Humidity: 48%
Barometer: 30.36 inHg , 1028.1 hPa
Clouds: Mostly cloudy
Visibility: 10 miles , 16 km
Cloud details: Mostly cloudy 25000 ft
Mostly cloudy 30000 ft
2022/11/30 18:53 KLBB 301853Z VRB04KT 10SM BKN250 BKN300 02/M08 A3036 RMK AO2 SLP292 T00221078
KPVW - Plainview, Texas, USA
Distance from station: NNW 85mi, 137km
Updated: Wed, 30-Nov-2022 1:10pm CST
Clear
Clear
 Wind from SE
Wind: SE 8 mph , 13 km/h
Temperature: 37°F , 3°C
Wind Chill: 31°F , -1°C
Dew Point: 18°F , -8°C
Humidity: 45%
Barometer: 30.34 inHg , 1027.4 hPa
Clouds: Clear
Visibility: 10 miles , 16 km
2022/11/30 19:10 KPVW 301910Z AUTO 14007KT 10SM CLR 03/M08 A3034 RMK AO2 T00261083
 
KDYS - Dyess Afb/Abilen, Texas, USA
Distance from station: ESE 88mi, 141km
Updated: Wed, 30-Nov-2022 12:55pm CST
Clear
Clear
 Wind from NE
Wind: NE 8 mph , 13 km/h
Temperature: 41°F , 5°C
Wind Chill: 36°F , 2°C
Dew Point: 14°F , -10°C
Humidity: 33%
Barometer: 30.41 inHg , 1029.8 hPa
Clouds: Clear
Visibility: 10 miles , 16 km
2022/11/30 18:55 KDYS 301855Z AUTO 05007KT 10SM CLR 05/M10 A3041 RMK AO2 SLP309 T00471098 $
KGNC - Seminole, Texas, USA
Distance from station: WSW 89mi, 144km
Updated: Wed, 30-Nov-2022 1:10pm CST
Clear
Clear
 Wind from ESE
Wind: ESE 9 mph , 15 km/h
Temperature: 39°F , 4°C
Wind Chill: 33°F , 1°C
Dew Point: 21°F , -6°C
Humidity: 48%
Barometer: 30.40 inHg , 1029.5 hPa
Clouds: Clear
Visibility: 10 miles , 16 km
2022/11/30 19:10 KGNC 301910Z AUTO 11008KT 10SM CLR 04/M06 A3040 RMK AO2 T00391058
 
KE11 - Andrews, Texas, USA
Distance from station: WSW 93mi, 149km
Updated: Wed, 30-Nov-2022 1:15pm CST
Clear
Clear
 Wind from ESE
Wind: ESE 7 mph , 11 km/h
Temperature: 41°F , 5°C
Wind Chill: 36°F , 2°C
Dew Point: 21°F , -6°C
Humidity: 45%
Barometer: 30.37 inHg , 1028.4 hPa
Clouds: Clear
Visibility: 10 miles , 16 km
2022/11/30 19:15 KE11 301915Z AUTO 11006KT 10SM CLR 05/M06 A3037 RMK AO2 T00481063
KABI - Abilene, Texas, USA
Distance from station: ESE 96mi, 154km
Updated: Wed, 30-Nov-2022 12:52pm CST
Clear
Clear
 Wind from varies
Wind: varies 5 mph , 7 km/h
Temperature: 45°F , 7°C
Wind Chill: 42°F , 6°C
Dew Point: 16°F , -9°C
Humidity: 31%
Barometer: 30.43 inHg , 1030.5 hPa
Clouds: Clear
Visibility: 10 miles , 16 km
2022/11/30 18:52 KABI 301852Z VRB04KT 10SM CLR 07/M09 A3043 RMK AO2 SLP306 T00721094
 
KMAF - Midland, Texas, USA
Distance from station: SW 96mi, 154km
Updated: Wed, 30-Nov-2022 12:53pm CST
Clear
Clear
 Wind from E
Wind: E 10 mph , 17 km/h
Temperature: 39°F , 4°C
Wind Chill: 32°F , 0°C
Dew Point: 23°F , -5°C
Humidity: 52%
Barometer: 30.38 inHg , 1028.8 hPa
Clouds: Clear
Visibility: 10 miles , 16 km
2022/11/30 18:53 KMAF 301853Z 09009KT 10SM CLR 04/M05 A3038 RMK AO2 SLP286 T00441050
KCDS - Childress, Texas, USA
Distance from station: NNE 110mi, 177km
Updated: Wed, 30-Nov-2022 12:53pm CST
Clear
Clear
 Wind from varies
Wind: varies 3 mph , 6 km/h
Temperature: 39°F , 4°C
Dew Point: 18°F , -8°C
Humidity: 42%
Barometer: 30.45 inHg , 1031.2 hPa
Clouds: Clear
Visibility: 10 miles , 16 km
2022/11/30 18:53 KCDS 301853Z AUTO VRB03KT 10SM CLR 04/M08 A3045 RMK AO2 SLP321 T00441083
 
KSJT - San Angelo, Texas, USA
Distance from station: SSE 121mi, 194km
Updated: Wed, 30-Nov-2022 12:51pm CST
Clear
Clear
 Wind from NE
Wind: NE 12 mph , 19 km/h
Temperature: 43°F , 6°C
Wind Chill: 37°F , 3°C
Dew Point: 25°F , -4°C
Humidity: 49%
Barometer: 30.41 inHg , 1029.8 hPa
Clouds: Clear
Visibility: 10 miles , 16 km
2022/11/30 18:51 KSJT 301851Z 05010KT 10SM CLR 06/M04 A3041 RMK AO2 SLP306 T00611044
KHOB - Hobbs/Lea Co., New Mexico, USA
Distance from station: WSW 122mi, 196km
Updated: Wed, 30-Nov-2022 12:50pm CST
Clear
Clear
 Wind from SE
Wind: SE 8 mph , 13 km/h, Gust: 15 mph , 24 km/h
Temperature: 39°F , 4°C
Wind Chill: 33°F , 1°C
Dew Point: 21°F , -6°C
Humidity: 48%
Barometer: 30.34 inHg , 1027.4 hPa
Clouds: Clear
Visibility: 10 miles , 16 km
2022/11/30 18:50 KHOB 301850Z 14007G13KT 10SM SKC 04/M06 A3034
 
KCOM - Coleman Muni, Texas, USA
Distance from station: SE 131mi, 212km
Updated: Wed, 30-Nov-2022 1:15pm CST
Clear
Clear
 Wind from NE
Wind: NE 8 mph , 13 km/h
Temperature: 48°F , 9°C
Wind Chill: 44°F , 7°C
Dew Point: 18°F , -8°C
Humidity: 29%
Barometer: 30.41 inHg , 1029.8 hPa
Clouds: Clear
Visibility: 10 miles , 16 km
2022/11/30 19:15 KCOM 301915Z AUTO 05007KT 10SM CLR 09/M08 A3041 RMK AO2 T00881079
KBKD - Breckenridge, Texas, USA
Distance from station: E 134mi, 215km
Updated: Wed, 30-Nov-2022 1:15pm CST
Clear
Clear
 Wind from NE
Wind: NE 5 mph , 7 km/h
Temperature: 46°F , 8°C
Wind Chill: 44°F , 7°C
Dew Point: 18°F , -8°C
Humidity: 32%
Barometer: 30.43 inHg , 1030.5 hPa
Clouds: Clear
Visibility: 10 miles , 16 km
2022/11/30 19:15 KBKD 301915Z AUTO 04004KT 10SM CLR 08/M08 A3043 RMK AO2 T00801080
 
KF05 - Vernon Wilbarger, Texas, USA
Distance from station: NE 137mi, 220km
Updated: Wed, 30-Nov-2022 1:15pm CST
Clear
Clear
 Wind from calm
Wind: Calm
Temperature: 43°F , 6°C
Dew Point: 18°F , -8°C
Humidity: 36%
Barometer: 30.46 inHg , 1031.5 hPa
Clouds: Clear
Visibility: 10 miles , 16 km
2022/11/30 19:15 KF05 301915Z AUTO 00000KT 10SM CLR 06/M08 A3046 RMK AO2 T00611079